sensor_id;sensor_type;location;lat;lon;timestamp;P1;durP1;ratioP1;P2;durP2;ratioP2
5493;SDS011;2769;49.864;8.656;2022-08-01T00:02:08;2.30;;;2.20;;
5493;SDS011;2769;49.864;8.656;2022-08-01T00:04:56;3.90;;;2.33;;
5493;SDS011;2769;49.864;8.656;2022-08-01T00:07:42;3.90;;;2.20;;
5493;SDS011;2769;49.864;8.656;2022-08-01T00:10:29;2.17;;;2.00;;
5493;SDS011;2769;49.864;8.656;2022-08-01T00:13:20;2.50;;;2.30;;
5493;SDS011;2769;49.864;8.656;2022-08-01T00:16:06;3.60;;;2.57;;
5493;SDS011;2769;49.864;8.656;2022-08-01T00:18:54;2.20;;;2.00;;
5493;SDS011;2769;49.864;8.656;2022-08-01T00:21:41;2.53;;;2.10;;
5493;SDS011;2769;49.864;8.656;2022-08-01T00:24:36;2.27;;;2.17;;
5493;SDS011;2769;49.864;8.656;2022-08-01T00:27:22;2.63;;;2.40;;
5493;SDS011;2769;49.864;8.656;2022-08-01T00:30:09;2.20;;;2.10;;
5493;SDS011;2769;49.864;8.656;2022-08-01T00:32:58;4.30;;;2.13;;
5493;SDS011;2769;49.864;8.656;2022-08-01T00:35:46;3.63;;;2.00;;
5493;SDS011;2769;49.864;8.656;2022-08-01T00:38:32;2.30;;;2.10;;
5493;SDS011;2769;49.864;8.656;2022-08-01T00:41:19;3.43;;;2.20;;
5493;SDS011;2769;49.864;8.656;2022-08-01T00:44:06;2.53;;;2.30;;
5493;SDS011;2769;49.864;8.656;2022-08-01T00:46:52;3.63;;;1.90;;
5493;SDS011;2769;49.864;8.656;2022-08-01T00:49:38;2.23;;;2.13;;
5493;SDS011;2769;49.864;8.656;2022-08-01T00:52:26;3.93;;;2.47;;
5493;SDS011;2769;49.864;8.656;2022-08-01T00:55:13;3.53;;;2.10;;
5493;SDS011;2769;49.864;8.656;2022-08-01T00:58:00;3.13;;;2.30;;
5493;SDS011;2769;49.864;8.656;2022-08-01T01:00:50;2.73;;;2.20;;
5493;SDS011;2769;49.864;8.656;2022-08-01T01:03:38;2.37;;;2.27;;
5493;SDS011;2769;49.864;8.656;2022-08-01T01:06:44;1.90;;;1.90;;
5493;SDS011;2769;49.864;8.656;2022-08-01T01:09:44;2.03;;;1.93;;
5493;SDS011;2769;49.864;8.656;2022-08-01T01:12:36;3.30;;;1.70;;
5493;SDS011;2769;49.864;8.656;2022-08-01T01:15:35;2.23;;;2.00;;
5493;SDS011;2769;49.864;8.656;2022-08-01T01:18:30;1.97;;;1.87;;
5493;SDS011;2769;49.864;8.656;2022-08-01T01:24:34;2.40;;;2.30;;
5493;SDS011;2769;49.864;8.656;2022-08-01T01:27:29;2.40;;;2.30;;
5493;SDS011;2769;49.864;8.656;2022-08-01T01:30:31;2.20;;;2.00;;
5493;SDS011;2769;49.864;8.656;2022-08-01T01:33:19;2.03;;;1.93;;
5493;SDS011;2769;49.864;8.656;2022-08-01T01:36:09;2.30;;;1.80;;
5493;SDS011;2769;49.864;8.656;2022-08-01T01:38:58;2.93;;;2.40;;
5493;SDS011;2769;49.864;8.656;2022-08-01T01:41:46;2.40;;;2.20;;
5493;SDS011;2769;49.864;8.656;2022-08-01T01:44:35;5.10;;;2.03;;
5493;SDS011;2769;49.864;8.656;2022-08-01T01:47:25;2.13;;;2.03;;
5493;SDS011;2769;49.864;8.656;2022-08-01T01:50:13;3.13;;;2.20;;
5493;SDS011;2769;49.864;8.656;2022-08-01T01:53:01;3.37;;;2.13;;
5493;SDS011;2769;49.864;8.656;2022-08-01T01:55:50;1.70;;;1.70;;
5493;SDS011;2769;49.864;8.656;2022-08-01T01:58:38;2.20;;;1.93;;
5493;SDS011;2769;49.864;8.656;2022-08-01T02:01:26;2.40;;;2.30;;
5493;SDS011;2769;49.864;8.656;2022-08-01T02:04:36;2.30;;;1.80;;
5493;SDS011;2769;49.864;8.656;2022-08-01T02:07:27;2.10;;;1.90;;
5493;SDS011;2769;49.864;8.656;2022-08-01T02:10:15;3.20;;;1.73;;
5493;SDS011;2769;49.864;8.656;2022-08-01T02:13:04;1.60;;;1.60;;
5493;SDS011;2769;49.864;8.656;2022-08-01T02:15:52;2.70;;;1.50;;
5493;SDS011;2769;49.864;8.656;2022-08-01T02:18:44;2.60;;;1.97;;
5493;SDS011;2769;49.864;8.656;2022-08-01T02:21:35;2.00;;;1.70;;
5493;SDS011;2769;49.864;8.656;2022-08-01T02:24:30;2.70;;;2.17;;
5493;SDS011;2769;49.864;8.656;2022-08-01T02:27:23;2.40;;;1.80;;
5493;SDS011;2769;49.864;8.656;2022-08-01T02:30:14;2.20;;;2.00;;
5493;SDS011;2769;49.864;8.656;2022-08-01T02:33:03;1.93;;;1.83;;
5493;SDS011;2769;49.864;8.656;2022-08-01T02:36:00;1.50;;;1.40;;
5493;SDS011;2769;49.864;8.656;2022-08-01T02:39:11;1.87;;;1.50;;
5493;SDS011;2769;49.864;8.656;2022-08-01T02:42:00;2.27;;;1.80;;
5493;SDS011;2769;49.864;8.656;2022-08-01T02:44:52;2.83;;;1.50;;
5493;SDS011;2769;49.864;8.656;2022-08-01T02:47:40;2.40;;;2.30;;
5493;SDS011;2769;49.864;8.656;2022-08-01T02:50:28;1.50;;;1.40;;
5493;SDS011;2769;49.864;8.656;2022-08-01T02:53:18;1.60;;;1.50;;
5493;SDS011;2769;49.864;8.656;2022-08-01T02:56:28;1.70;;;1.60;;
5493;SDS011;2769;49.864;8.656;2022-08-01T02:59:21;1.90;;;1.80;;
5493;SDS011;2769;49.864;8.656;2022-08-01T03:02:10;2.60;;;1.53;;
5493;SDS011;2769;49.864;8.656;2022-08-01T03:04:59;1.80;;;1.73;;
5493;SDS011;2769;49.864;8.656;2022-08-01T03:07:46;2.50;;;1.50;;
5493;SDS011;2769;49.864;8.656;2022-08-01T03:10:34;1.53;;;1.40;;
5493;SDS011;2769;49.864;8.656;2022-08-01T03:13:24;1.70;;;1.60;;
5493;SDS011;2769;49.864;8.656;2022-08-01T03:16:12;2.33;;;1.50;;
5493;SDS011;2769;49.864;8.656;2022-08-01T03:19:00;1.80;;;1.70;;
5493;SDS011;2769;49.864;8.656;2022-08-01T03:21:47;2.40;;;1.30;;
5493;SDS011;2769;49.864;8.656;2022-08-01T03:24:35;1.53;;;1.30;;
5493;SDS011;2769;49.864;8.656;2022-08-01T03:27:23;1.20;;;1.20;;
5493;SDS011;2769;49.864;8.656;2022-08-01T03:30:13;1.37;;;1.27;;
5493;SDS011;2769;49.864;8.656;2022-08-01T03:33:00;1.60;;;1.50;;
5493;SDS011;2769;49.864;8.656;2022-08-01T03:35:48;5.30;;;1.40;;
5493;SDS011;2769;49.864;8.656;2022-08-01T03:38:39;1.60;;;1.50;;
5493;SDS011;2769;49.864;8.656;2022-08-01T03:41:28;2.10;;;1.50;;
5493;SDS011;2769;49.864;8.656;2022-08-01T03:44:23;1.60;;;1.50;;
5493;SDS011;2769;49.864;8.656;2022-08-01T03:47:13;2.10;;;1.27;;
5493;SDS011;2769;49.864;8.656;2022-08-01T03:50:03;1.50;;;1.40;;
5493;SDS011;2769;49.864;8.656;2022-08-01T03:52:57;1.87;;;1.77;;
5493;SDS011;2769;49.864;8.656;2022-08-01T03:55:46;3.60;;;1.70;;
5493;SDS011;2769;49.864;8.656;2022-08-01T03:58:33;3.20;;;1.83;;
5493;SDS011;2769;49.864;8.656;2022-08-01T04:01:20;1.40;;;1.30;;
5493;SDS011;2769;49.864;8.656;2022-08-01T04:04:09;2.73;;;1.70;;
5493;SDS011;2769;49.864;8.656;2022-08-01T04:06:56;1.33;;;1.27;;
5493;SDS011;2769;49.864;8.656;2022-08-01T04:09:49;1.50;;;1.40;;
5493;SDS011;2769;49.864;8.656;2022-08-01T04:12:35;1.57;;;1.50;;
5493;SDS011;2769;49.864;8.656;2022-08-01T04:15:22;1.47;;;1.47;;
5493;SDS011;2769;49.864;8.656;2022-08-01T04:18:08;1.50;;;1.40;;
5493;SDS011;2769;49.864;8.656;2022-08-01T04:20:56;1.87;;;1.60;;
5493;SDS011;2769;49.864;8.656;2022-08-01T04:23:43;1.63;;;1.53;;
5493;SDS011;2769;49.864;8.656;2022-08-01T04:26:37;3.17;;;1.80;;
5493;SDS011;2769;49.864;8.656;2022-08-01T04:29:25;3.43;;;1.80;;
5493;SDS011;2769;49.864;8.656;2022-08-01T04:32:14;2.60;;;1.50;;
5493;SDS011;2769;49.864;8.656;2022-08-01T04:35:04;2.33;;;1.53;;
5493;SDS011;2769;49.864;8.656;2022-08-01T04:38:17;2.20;;;2.00;;
5493;SDS011;2769;49.864;8.656;2022-08-01T04:41:09;1.40;;;1.40;;
5493;SDS011;2769;49.864;8.656;2022-08-01T04:43:58;3.00;;;2.00;;
5493;SDS011;2769;49.864;8.656;2022-08-01T04:46:45;3.50;;;1.63;;
5493;SDS011;2769;49.864;8.656;2022-08-01T04:49:33;2.10;;;1.80;;
5493;SDS011;2769;49.864;8.656;2022-08-01T04:52:33;1.67;;;1.63;;
5493;SDS011;2769;49.864;8.656;2022-08-01T04:55:22;3.27;;;1.93;;
5493;SDS011;2769;49.864;8.656;2022-08-01T04:58:09;2.00;;;1.80;;
5493;SDS011;2769;49.864;8.656;2022-08-01T05:01:01;1.73;;;1.57;;
5493;SDS011;2769;49.864;8.656;2022-08-01T05:03:48;1.73;;;1.73;;
5493;SDS011;2769;49.864;8.656;2022-08-01T05:06:35;7.73;;;1.77;;
5493;SDS011;2769;49.864;8.656;2022-08-01T05:09:21;2.20;;;1.90;;
5493;SDS011;2769;49.864;8.656;2022-08-01T05:12:16;2.93;;;1.67;;
5493;SDS011;2769;49.864;8.656;2022-08-01T05:15:03;1.97;;;1.60;;
5493;SDS011;2769;49.864;8.656;2022-08-01T05:17:58;1.57;;;1.47;;
5493;SDS011;2769;49.864;8.656;2022-08-01T05:20:44;4.83;;;1.97;;
5493;SDS011;2769;49.864;8.656;2022-08-01T05:23:32;8.27;;;2.00;;
5493;SDS011;2769;49.864;8.656;2022-08-01T05:26:27;4.73;;;1.57;;
5493;SDS011;2769;49.864;8.656;2022-08-01T05:29:17;1.60;;;1.50;;
5493;SDS011;2769;49.864;8.656;2022-08-01T05:32:03;2.43;;;1.97;;
5493;SDS011;2769;49.864;8.656;2022-08-01T05:34:51;1.77;;;1.67;;
5493;SDS011;2769;49.864;8.656;2022-08-01T05:37:37;4.90;;;1.53;;
5493;SDS011;2769;49.864;8.656;2022-08-01T05:40:24;1.90;;;1.67;;
5493;SDS011;2769;49.864;8.656;2022-08-01T05:43:10;4.10;;;1.90;;
5493;SDS011;2769;49.864;8.656;2022-08-01T05:45:58;1.97;;;1.77;;
5493;SDS011;2769;49.864;8.656;2022-08-01T05:48:46;2.00;;;1.90;;
5493;SDS011;2769;49.864;8.656;2022-08-01T05:51:33;1.83;;;1.73;;
5493;SDS011;2769;49.864;8.656;2022-08-01T05:54:19;6.10;;;1.90;;
5493;SDS011;2769;49.864;8.656;2022-08-01T05:57:05;1.50;;;1.40;;
5493;SDS011;2769;49.864;8.656;2022-08-01T05:59:52;1.67;;;1.57;;
5493;SDS011;2769;49.864;8.656;2022-08-01T06:02:43;2.60;;;1.80;;
5493;SDS011;2769;49.864;8.656;2022-08-01T06:05:29;3.93;;;1.70;;
5493;SDS011;2769;49.864;8.656;2022-08-01T06:08:16;3.33;;;1.80;;
5493;SDS011;2769;49.864;8.656;2022-08-01T06:11:02;1.87;;;1.43;;
5493;SDS011;2769;49.864;8.656;2022-08-01T06:13:49;3.20;;;1.43;;
5493;SDS011;2769;49.864;8.656;2022-08-01T06:16:36;3.50;;;1.50;;
5493;SDS011;2769;49.864;8.656;2022-08-01T06:19:24;5.87;;;2.10;;
5493;SDS011;2769;49.864;8.656;2022-08-01T06:22:11;3.20;;;1.87;;
5493;SDS011;2769;49.864;8.656;2022-08-01T06:24:57;9.83;;;1.70;;
5493;SDS011;2769;49.864;8.656;2022-08-01T06:27:44;3.83;;;1.60;;
5493;SDS011;2769;49.864;8.656;2022-08-01T06:30:30;1.73;;;1.63;;
5493;SDS011;2769;49.864;8.656;2022-08-01T06:33:17;1.80;;;1.70;;
5493;SDS011;2769;49.864;8.656;2022-08-01T06:36:05;1.87;;;1.60;;
5493;SDS011;2769;49.864;8.656;2022-08-01T06:38:52;2.07;;;1.40;;
5493;SDS011;2769;49.864;8.656;2022-08-01T06:41:38;1.80;;;1.70;;
5493;SDS011;2769;49.864;8.656;2022-08-01T06:44:26;3.17;;;1.80;;
5493;SDS011;2769;49.864;8.656;2022-08-01T06:47:12;5.17;;;2.37;;
5493;SDS011;2769;49.864;8.656;2022-08-01T06:49:59;2.07;;;1.60;;
5493;SDS011;2769;49.864;8.656;2022-08-01T06:52:47;1.83;;;1.70;;
5493;SDS011;2769;49.864;8.656;2022-08-01T06:55:33;1.60;;;1.50;;
5493;SDS011;2769;49.864;8.656;2022-08-01T06:58:20;2.57;;;1.90;;
5493;SDS011;2769;49.864;8.656;2022-08-01T07:01:15;5.43;;;2.20;;
5493;SDS011;2769;49.864;8.656;2022-08-01T07:04:02;2.03;;;1.83;;
5493;SDS011;2769;49.864;8.656;2022-08-01T07:06:48;3.43;;;2.10;;
5493;SDS011;2769;49.864;8.656;2022-08-01T07:09:36;2.40;;;2.10;;
5493;SDS011;2769;49.864;8.656;2022-08-01T07:12:25;4.57;;;2.00;;
5493;SDS011;2769;49.864;8.656;2022-08-01T07:15:12;2.47;;;2.27;;
5493;SDS011;2769;49.864;8.656;2022-08-01T07:17:58;2.53;;;2.40;;
5493;SDS011;2769;49.864;8.656;2022-08-01T07:20:48;2.40;;;2.00;;
5493;SDS011;2769;49.864;8.656;2022-08-01T07:23:36;3.27;;;2.17;;
5493;SDS011;2769;49.864;8.656;2022-08-01T07:26:31;2.47;;;2.27;;
5493;SDS011;2769;49.864;8.656;2022-08-01T07:29:18;2.20;;;1.73;;
5493;SDS011;2769;49.864;8.656;2022-08-01T07:32:04;2.30;;;1.90;;
5493;SDS011;2769;49.864;8.656;2022-08-01T07:34:52;2.10;;;2.00;;
5493;SDS011;2769;49.864;8.656;2022-08-01T07:37:38;4.03;;;1.70;;
5493;SDS011;2769;49.864;8.656;2022-08-01T07:40:33;2.10;;;2.00;;
5493;SDS011;2769;49.864;8.656;2022-08-01T07:43:21;3.13;;;2.30;;
5493;SDS011;2769;49.864;8.656;2022-08-01T07:46:07;2.00;;;1.90;;
5493;SDS011;2769;49.864;8.656;2022-08-01T07:48:54;3.10;;;3.00;;
5493;SDS011;2769;49.864;8.656;2022-08-01T07:51:40;2.63;;;2.43;;
5493;SDS011;2769;49.864;8.656;2022-08-01T07:54:47;4.17;;;2.43;;
5493;SDS011;2769;49.864;8.656;2022-08-01T07:57:36;3.70;;;2.00;;
5493;SDS011;2769;49.864;8.656;2022-08-01T08:00:24;1.80;;;1.70;;
5493;SDS011;2769;49.864;8.656;2022-08-01T08:03:12;2.93;;;1.90;;
5493;SDS011;2769;49.864;8.656;2022-08-01T08:05:58;2.10;;;1.80;;
5493;SDS011;2769;49.864;8.656;2022-08-01T08:08:45;3.17;;;1.90;;
5493;SDS011;2769;49.864;8.656;2022-08-01T08:11:31;1.97;;;1.87;;
5493;SDS011;2769;49.864;8.656;2022-08-01T08:14:18;1.80;;;1.70;;
5493;SDS011;2769;49.864;8.656;2022-08-01T08:17:17;1.80;;;1.60;;
5493;SDS011;2769;49.864;8.656;2022-08-01T08:20:05;1.53;;;1.53;;
5493;SDS011;2769;49.864;8.656;2022-08-01T08:22:53;1.93;;;1.83;;
5493;SDS011;2769;49.864;8.656;2022-08-01T08:25:40;1.73;;;1.57;;
5493;SDS011;2769;49.864;8.656;2022-08-01T08:28:27;2.03;;;1.83;;
5493;SDS011;2769;49.864;8.656;2022-08-01T08:31:13;1.90;;;1.80;;
5493;SDS011;2769;49.864;8.656;2022-08-01T08:34:21;1.70;;;1.60;;
5493;SDS011;2769;49.864;8.656;2022-08-01T08:37:08;3.37;;;1.93;;
5493;SDS011;2769;49.864;8.656;2022-08-01T08:39:55;3.00;;;1.90;;
5493;SDS011;2769;49.864;8.656;2022-08-01T08:42:42;1.47;;;1.37;;
5493;SDS011;2769;49.864;8.656;2022-08-01T08:45:30;2.10;;;1.90;;
5493;SDS011;2769;49.864;8.656;2022-08-01T08:48:38;1.97;;;1.87;;
5493;SDS011;2769;49.864;8.656;2022-08-01T08:51:27;1.93;;;1.83;;
5493;SDS011;2769;49.864;8.656;2022-08-01T08:54:17;1.90;;;1.80;;
5493;SDS011;2769;49.864;8.656;2022-08-01T08:57:05;2.33;;;2.00;;
5493;SDS011;2769;49.864;8.656;2022-08-01T08:59:52;2.13;;;2.03;;
5493;SDS011;2769;49.864;8.656;2022-08-01T09:02:41;2.30;;;2.03;;
5493;SDS011;2769;49.864;8.656;2022-08-01T09:05:28;2.10;;;2.00;;
5493;SDS011;2769;49.864;8.656;2022-08-01T09:08:24;1.83;;;1.73;;
5493;SDS011;2769;49.864;8.656;2022-08-01T09:11:10;1.90;;;1.80;;
5493;SDS011;2769;49.864;8.656;2022-08-01T09:14:08;3.23;;;1.90;;
5493;SDS011;2769;49.864;8.656;2022-08-01T09:16:59;2.20;;;2.00;;
5493;SDS011;2769;49.864;8.656;2022-08-01T09:19:48;6.63;;;2.47;;
5493;SDS011;2769;49.864;8.656;2022-08-01T09:22:38;2.77;;;2.03;;
5493;SDS011;2769;49.864;8.656;2022-08-01T09:25:32;2.33;;;2.00;;
5493;SDS011;2769;49.864;8.656;2022-08-01T09:28:43;1.87;;;1.67;;
5493;SDS011;2769;49.864;8.656;2022-08-01T09:31:39;3.10;;;1.93;;
5493;SDS011;2769;49.864;8.656;2022-08-01T09:34:32;5.10;;;1.83;;
5493;SDS011;2769;49.864;8.656;2022-08-01T09:37:18;3.27;;;1.93;;
5493;SDS011;2769;49.864;8.656;2022-08-01T09:40:21;4.83;;;1.63;;
5493;SDS011;2769;49.864;8.656;2022-08-01T09:43:12;2.70;;;1.93;;
5493;SDS011;2769;49.864;8.656;2022-08-01T09:45:59;2.00;;;1.90;;
5493;SDS011;2769;49.864;8.656;2022-08-01T09:48:57;1.80;;;1.67;;
5493;SDS011;2769;49.864;8.656;2022-08-01T09:51:45;1.63;;;1.53;;
5493;SDS011;2769;49.864;8.656;2022-08-01T09:54:52;2.70;;;1.60;;
5493;SDS011;2769;49.864;8.656;2022-08-01T09:57:39;1.80;;;1.70;;
5493;SDS011;2769;49.864;8.656;2022-08-01T10:00:41;2.40;;;1.40;;
5493;SDS011;2769;49.864;8.656;2022-08-01T10:03:29;3.40;;;1.53;;
5493;SDS011;2769;49.864;8.656;2022-08-01T10:06:20;1.40;;;1.40;;
5493;SDS011;2769;49.864;8.656;2022-08-01T10:09:08;2.53;;;1.50;;
5493;SDS011;2769;49.864;8.656;2022-08-01T10:11:57;1.67;;;1.60;;
5493;SDS011;2769;49.864;8.656;2022-08-01T10:14:46;2.03;;;1.93;;
5493;SDS011;2769;49.864;8.656;2022-08-01T10:17:36;2.60;;;1.57;;
5493;SDS011;2769;49.864;8.656;2022-08-01T10:20:35;1.30;;;1.30;;
5493;SDS011;2769;49.864;8.656;2022-08-01T10:23:22;1.37;;;1.37;;
5493;SDS011;2769;49.864;8.656;2022-08-01T10:26:25;2.73;;;1.50;;
5493;SDS011;2769;49.864;8.656;2022-08-01T10:29:15;1.50;;;1.40;;
5493;SDS011;2769;49.864;8.656;2022-08-01T10:32:23;1.50;;;1.50;;
5493;SDS011;2769;49.864;8.656;2022-08-01T10:35:14;1.30;;;1.20;;
5493;SDS011;2769;49.864;8.656;2022-08-01T10:38:22;1.77;;;1.67;;
5493;SDS011;2769;49.864;8.656;2022-08-01T10:41:09;2.20;;;1.60;;
5493;SDS011;2769;49.864;8.656;2022-08-01T10:44:00;1.40;;;1.30;;
5493;SDS011;2769;49.864;8.656;2022-08-01T10:46:48;1.53;;;1.53;;
5493;SDS011;2769;49.864;8.656;2022-08-01T10:49:39;1.70;;;1.60;;
5493;SDS011;2769;49.864;8.656;2022-08-01T10:52:32;2.03;;;1.50;;
5493;SDS011;2769;49.864;8.656;2022-08-01T10:55:23;4.00;;;1.20;;
5493;SDS011;2769;49.864;8.656;2022-08-01T10:58:11;1.63;;;1.53;;
5493;SDS011;2769;49.864;8.656;2022-08-01T11:01:19;2.60;;;1.70;;
5493;SDS011;2769;49.864;8.656;2022-08-01T11:04:10;1.80;;;1.70;;
5493;SDS011;2769;49.864;8.656;2022-08-01T11:07:02;1.50;;;1.50;;
5493;SDS011;2769;49.864;8.656;2022-08-01T11:10:02;1.83;;;1.73;;
5493;SDS011;2769;49.864;8.656;2022-08-01T11:12:59;2.20;;;1.50;;
5493;SDS011;2769;49.864;8.656;2022-08-01T11:15:48;1.87;;;1.50;;
5493;SDS011;2769;49.864;8.656;2022-08-01T11:18:35;2.10;;;1.40;;
5493;SDS011;2769;49.864;8.656;2022-08-01T11:21:23;3.33;;;1.50;;
5493;SDS011;2769;49.864;8.656;2022-08-01T11:24:54;1.38;;;1.15;;
5493;SDS011;2769;49.864;8.656;2022-08-01T11:27:47;1.10;;;1.10;;
5493;SDS011;2769;49.864;8.656;2022-08-01T11:30:35;1.45;;;1.30;;
5493;SDS011;2769;49.864;8.656;2022-08-01T11:33:48;2.08;;;1.20;;
5493;SDS011;2769;49.864;8.656;2022-08-01T11:36:35;1.13;;;1.13;;
5493;SDS011;2769;49.864;8.656;2022-08-01T11:39:42;1.83;;;1.08;;
5493;SDS011;2769;49.864;8.656;2022-08-01T11:42:28;1.10;;;1.10;;
5493;SDS011;2769;49.864;8.656;2022-08-01T11:45:17;0.95;;;0.95;;
5493;SDS011;2769;49.864;8.656;2022-08-01T11:48:04;1.10;;;1.10;;
5493;SDS011;2769;49.864;8.656;2022-08-01T11:51:03;2.53;;;1.08;;
5493;SDS011;2769;49.864;8.656;2022-08-01T11:54:09;0.93;;;0.90;;
5493;SDS011;2769;49.864;8.656;2022-08-01T11:56:56;1.05;;;1.05;;
5493;SDS011;2769;49.864;8.656;2022-08-01T11:59:45;1.20;;;1.10;;
5493;SDS011;2769;49.864;8.656;2022-08-01T12:02:56;1.10;;;1.10;;
5493;SDS011;2769;49.864;8.656;2022-08-01T12:05:44;1.05;;;1.05;;
5493;SDS011;2769;49.864;8.656;2022-08-01T12:08:31;1.08;;;1.00;;
5493;SDS011;2769;49.864;8.656;2022-08-01T12:11:21;1.15;;;1.15;;
5493;SDS011;2769;49.864;8.656;2022-08-01T12:14:20;2.90;;;1.08;;
5493;SDS011;2769;49.864;8.656;2022-08-01T12:17:07;0.90;;;0.90;;
5493;SDS011;2769;49.864;8.656;2022-08-01T12:19:55;1.08;;;0.95;;
5493;SDS011;2769;49.864;8.656;2022-08-01T12:22:42;0.95;;;0.95;;
5493;SDS011;2769;49.864;8.656;2022-08-01T12:25:29;0.93;;;0.93;;
5493;SDS011;2769;49.864;8.656;2022-08-01T12:28:16;0.90;;;0.90;;
5493;SDS011;2769;49.864;8.656;2022-08-01T12:31:03;1.20;;;1.20;;
5493;SDS011;2769;49.864;8.656;2022-08-01T12:33:50;0.90;;;0.90;;
5493;SDS011;2769;49.864;8.656;2022-08-01T12:36:38;0.98;;;0.98;;
5493;SDS011;2769;49.864;8.656;2022-08-01T12:39:34;1.00;;;1.00;;
5493;SDS011;2769;49.864;8.656;2022-08-01T12:42:24;1.30;;;1.20;;
5493;SDS011;2769;49.864;8.656;2022-08-01T12:45:12;1.20;;;1.20;;
5493;SDS011;2769;49.864;8.656;2022-08-01T12:48:00;1.20;;;1.20;;
5493;SDS011;2769;49.864;8.656;2022-08-01T12:50:48;1.53;;;1.10;;
5493;SDS011;2769;49.864;8.656;2022-08-01T12:53:37;1.43;;;1.30;;
5493;SDS011;2769;49.864;8.656;2022-08-01T12:56:30;2.60;;;1.40;;
5493;SDS011;2769;49.864;8.656;2022-08-01T12:59:21;1.20;;;1.20;;
5493;SDS011;2769;49.864;8.656;2022-08-01T13:02:09;1.47;;;1.30;;
5493;SDS011;2769;49.864;8.656;2022-08-01T13:04:57;1.20;;;1.10;;
5493;SDS011;2769;49.864;8.656;2022-08-01T13:07:45;1.60;;;1.50;;
5493;SDS011;2769;49.864;8.656;2022-08-01T13:10:35;2.60;;;1.40;;
5493;SDS011;2769;49.864;8.656;2022-08-01T13:13:21;2.00;;;1.20;;
5493;SDS011;2769;49.864;8.656;2022-08-01T13:16:13;3.17;;;1.20;;
5493;SDS011;2769;49.864;8.656;2022-08-01T13:19:21;1.53;;;1.30;;
5493;SDS011;2769;49.864;8.656;2022-08-01T13:22:31;3.23;;;1.40;;
5493;SDS011;2769;49.864;8.656;2022-08-01T13:25:18;1.30;;;1.30;;
5493;SDS011;2769;49.864;8.656;2022-08-01T13:28:15;1.50;;;1.40;;
5493;SDS011;2769;49.864;8.656;2022-08-01T13:31:02;1.63;;;1.10;;
5493;SDS011;2769;49.864;8.656;2022-08-01T13:33:50;1.20;;;1.10;;
5493;SDS011;2769;49.864;8.656;2022-08-01T13:36:44;1.63;;;1.10;;
5493;SDS011;2769;49.864;8.656;2022-08-01T13:39:33;1.13;;;1.10;;
5493;SDS011;2769;49.864;8.656;2022-08-01T13:42:26;1.53;;;1.20;;
5493;SDS011;2769;49.864;8.656;2022-08-01T13:45:15;1.83;;;1.20;;
5493;SDS011;2769;49.864;8.656;2022-08-01T13:48:06;1.37;;;1.37;;
5493;SDS011;2769;49.864;8.656;2022-08-01T13:51:03;1.90;;;1.30;;
5493;SDS011;2769;49.864;8.656;2022-08-01T13:54:06;1.40;;;1.37;;
5493;SDS011;2769;49.864;8.656;2022-08-01T13:56:53;1.40;;;1.30;;
5493;SDS011;2769;49.864;8.656;2022-08-01T13:59:40;1.53;;;1.50;;
5493;SDS011;2769;49.864;8.656;2022-08-01T14:02:29;1.10;;;1.10;;
5493;SDS011;2769;49.864;8.656;2022-08-01T14:05:20;1.30;;;1.20;;
5493;SDS011;2769;49.864;8.656;2022-08-01T14:08:09;1.30;;;1.30;;
5493;SDS011;2769;49.864;8.656;2022-08-01T14:10:58;2.07;;;1.20;;
5493;SDS011;2769;49.864;8.656;2022-08-01T14:13:44;3.23;;;1.23;;
5493;SDS011;2769;49.864;8.656;2022-08-01T14:16:32;1.60;;;1.50;;
5493;SDS011;2769;49.864;8.656;2022-08-01T14:19:21;1.50;;;1.40;;
5493;SDS011;2769;49.864;8.656;2022-08-01T14:22:23;1.20;;;1.20;;
5493;SDS011;2769;49.864;8.656;2022-08-01T14:25:10;4.00;;;1.30;;
5493;SDS011;2769;49.864;8.656;2022-08-01T14:28:17;1.90;;;1.27;;
5493;SDS011;2769;49.864;8.656;2022-08-01T14:31:04;2.20;;;1.40;;
5493;SDS011;2769;49.864;8.656;2022-08-01T14:33:52;1.70;;;1.60;;
5493;SDS011;2769;49.864;8.656;2022-08-01T14:36:40;3.53;;;1.60;;
5493;SDS011;2769;49.864;8.656;2022-08-01T14:39:27;1.37;;;1.37;;
5493;SDS011;2769;49.864;8.656;2022-08-01T14:42:14;1.27;;;1.27;;
5493;SDS011;2769;49.864;8.656;2022-08-01T14:45:00;4.27;;;1.50;;
5493;SDS011;2769;49.864;8.656;2022-08-01T14:47:47;1.70;;;1.60;;
5493;SDS011;2769;49.864;8.656;2022-08-01T14:50:34;1.30;;;1.30;;
5493;SDS011;2769;49.864;8.656;2022-08-01T14:53:22;1.60;;;1.50;;
5493;SDS011;2769;49.864;8.656;2022-08-01T14:56:09;1.90;;;1.80;;
5493;SDS011;2769;49.864;8.656;2022-08-01T14:58:56;1.40;;;1.40;;
5493;SDS011;2769;49.864;8.656;2022-08-01T15:01:43;2.87;;;1.30;;
5493;SDS011;2769;49.864;8.656;2022-08-01T15:04:30;1.40;;;1.30;;
5493;SDS011;2769;49.864;8.656;2022-08-01T15:07:17;1.60;;;1.33;;
5493;SDS011;2769;49.864;8.656;2022-08-01T15:10:06;1.33;;;1.10;;
5493;SDS011;2769;49.864;8.656;2022-08-01T15:12:54;2.47;;;1.37;;
5493;SDS011;2769;49.864;8.656;2022-08-01T15:15:41;1.10;;;1.10;;
5493;SDS011;2769;49.864;8.656;2022-08-01T15:18:28;1.40;;;1.30;;
5493;SDS011;2769;49.864;8.656;2022-08-01T15:21:18;1.17;;;1.13;;
5493;SDS011;2769;49.864;8.656;2022-08-01T15:24:24;1.33;;;1.23;;
5493;SDS011;2769;49.864;8.656;2022-08-01T15:27:12;1.50;;;1.40;;
5493;SDS011;2769;49.864;8.656;2022-08-01T15:29:59;3.37;;;1.50;;
5493;SDS011;2769;49.864;8.656;2022-08-01T15:32:45;4.53;;;1.57;;
5493;SDS011;2769;49.864;8.656;2022-08-01T15:35:35;4.73;;;1.50;;
5493;SDS011;2769;49.864;8.656;2022-08-01T15:38:21;2.67;;;1.73;;
5493;SDS011;2769;49.864;8.656;2022-08-01T15:41:08;3.33;;;2.13;;
5493;SDS011;2769;49.864;8.656;2022-08-01T15:43:56;3.23;;;2.70;;
5493;SDS011;2769;49.864;8.656;2022-08-01T15:46:43;4.20;;;2.77;;
5493;SDS011;2769;49.864;8.656;2022-08-01T15:49:30;4.13;;;2.40;;
5493;SDS011;2769;49.864;8.656;2022-08-01T15:52:17;2.77;;;1.80;;
5493;SDS011;2769;49.864;8.656;2022-08-01T15:55:07;6.80;;;2.20;;
5493;SDS011;2769;49.864;8.656;2022-08-01T15:57:54;3.10;;;2.30;;
5493;SDS011;2769;49.864;8.656;2022-08-01T16:00:41;3.70;;;1.90;;
5493;SDS011;2769;49.864;8.656;2022-08-01T16:03:28;2.97;;;2.20;;
5493;SDS011;2769;49.864;8.656;2022-08-01T16:06:15;3.60;;;2.13;;
5493;SDS011;2769;49.864;8.656;2022-08-01T16:09:01;2.90;;;2.00;;
5493;SDS011;2769;49.864;8.656;2022-08-01T16:11:48;2.00;;;1.90;;
5493;SDS011;2769;49.864;8.656;2022-08-01T16:14:36;1.87;;;1.77;;
5493;SDS011;2769;49.864;8.656;2022-08-01T16:17:24;2.17;;;2.03;;
5493;SDS011;2769;49.864;8.656;2022-08-01T16:20:11;3.17;;;2.00;;
5493;SDS011;2769;49.864;8.656;2022-08-01T16:22:57;3.27;;;1.60;;
5493;SDS011;2769;49.864;8.656;2022-08-01T16:25:44;2.10;;;1.80;;
5493;SDS011;2769;49.864;8.656;2022-08-01T16:28:30;2.63;;;1.60;;
5493;SDS011;2769;49.864;8.656;2022-08-01T16:31:17;2.27;;;2.17;;
5493;SDS011;2769;49.864;8.656;2022-08-01T16:34:25;3.30;;;2.57;;
5493;SDS011;2769;49.864;8.656;2022-08-01T16:37:12;5.27;;;3.20;;
5493;SDS011;2769;49.864;8.656;2022-08-01T16:39:59;4.30;;;2.87;;
5493;SDS011;2769;49.864;8.656;2022-08-01T16:42:46;4.77;;;3.40;;
5493;SDS011;2769;49.864;8.656;2022-08-01T16:45:33;5.83;;;3.40;;
5493;SDS011;2769;49.864;8.656;2022-08-01T16:48:26;6.40;;;3.53;;
5493;SDS011;2769;49.864;8.656;2022-08-01T16:51:14;3.70;;;3.40;;
5493;SDS011;2769;49.864;8.656;2022-08-01T16:54:01;3.43;;;3.10;;
5493;SDS011;2769;49.864;8.656;2022-08-01T16:57:08;3.30;;;3.10;;
5493;SDS011;2769;49.864;8.656;2022-08-01T16:59:55;2.90;;;2.70;;
5493;SDS011;2769;49.864;8.656;2022-08-01T17:02:42;6.73;;;2.50;;
5493;SDS011;2769;49.864;8.656;2022-08-01T17:05:29;3.63;;;2.90;;
5493;SDS011;2769;49.864;8.656;2022-08-01T17:08:18;3.60;;;3.00;;
5493;SDS011;2769;49.864;8.656;2022-08-01T17:11:05;3.07;;;2.50;;
5493;SDS011;2769;49.864;8.656;2022-08-01T17:13:51;2.33;;;2.20;;
5493;SDS011;2769;49.864;8.656;2022-08-01T17:16:38;3.17;;;2.97;;
5493;SDS011;2769;49.864;8.656;2022-08-01T17:19:24;3.00;;;2.73;;
5493;SDS011;2769;49.864;8.656;2022-08-01T17:22:17;3.63;;;3.23;;
5493;SDS011;2769;49.864;8.656;2022-08-01T17:25:06;6.40;;;3.90;;
5493;SDS011;2769;49.864;8.656;2022-08-01T17:28:00;4.43;;;4.13;;
5493;SDS011;2769;49.864;8.656;2022-08-01T17:30:47;4.33;;;3.93;;
5493;SDS011;2769;49.864;8.656;2022-08-01T17:33:33;4.50;;;4.10;;
5493;SDS011;2769;49.864;8.656;2022-08-01T17:36:30;4.83;;;3.20;;
5493;SDS011;2769;49.864;8.656;2022-08-01T17:39:17;3.43;;;3.20;;
5493;SDS011;2769;49.864;8.656;2022-08-01T17:42:20;3.93;;;3.20;;